sensor_id;sensor_type;location;lat;lon;timestamp;P1;durP1;ratioP1;P2;durP2;ratioP2
53775;SDS011;44276;49.534;6.378;2023-10-08T00:01:11;31.33;;;12.05;;
53775;SDS011;44276;49.534;6.378;2023-10-08T00:03:41;28.55;;;12.85;;
53775;SDS011;44276;49.534;6.378;2023-10-08T00:06:15;28.98;;;11.52;;
53775;SDS011;44276;49.534;6.378;2023-10-08T00:08:45;26.65;;;13.05;;
53775;SDS011;44276;49.534;6.378;2023-10-08T00:11:14;69.60;;;21.00;;
53775;SDS011;44276;49.534;6.378;2023-10-08T00:13:43;71.60;;;22.40;;
53775;SDS011;44276;49.534;6.378;2023-10-08T00:16:16;60.38;;;20.50;;
53775;SDS011;44276;49.534;6.378;2023-10-08T00:18:48;45.22;;;18.05;;
53775;SDS011;44276;49.534;6.378;2023-10-08T00:21:18;26.95;;;14.65;;
53775;SDS011;44276;49.534;6.378;2023-10-08T00:23:54;30.20;;;15.40;;
53775;SDS011;44276;49.534;6.378;2023-10-08T00:26:26;37.80;;;15.98;;
53775;SDS011;44276;49.534;6.378;2023-10-08T00:28:57;32.70;;;14.27;;
53775;SDS011;44276;49.534;6.378;2023-10-08T00:31:28;30.60;;;15.32;;
53775;SDS011;44276;49.534;6.378;2023-10-08T00:34:03;27.75;;;13.73;;
53775;SDS011;44276;49.534;6.378;2023-10-08T00:36:37;31.45;;;13.88;;
53775;SDS011;44276;49.534;6.378;2023-10-08T00:39:08;41.50;;;16.40;;
53775;SDS011;44276;49.534;6.378;2023-10-08T00:41:40;33.88;;;15.77;;
53775;SDS011;44276;49.534;6.378;2023-10-08T00:44:10;33.45;;;14.88;;
53775;SDS011;44276;49.534;6.378;2023-10-08T00:46:44;30.85;;;15.32;;
53775;SDS011;44276;49.534;6.378;2023-10-08T00:49:15;31.45;;;14.68;;
53775;SDS011;44276;49.534;6.378;2023-10-08T00:52:07;31.80;;;15.50;;
53775;SDS011;44276;49.534;6.378;2023-10-08T00:54:51;33.45;;;15.48;;
53775;SDS011;44276;49.534;6.378;2023-10-08T00:57:33;32.55;;;15.57;;
53775;SDS011;44276;49.534;6.378;2023-10-08T01:00:03;34.88;;;16.77;;
53775;SDS011;44276;49.534;6.378;2023-10-08T01:02:42;30.27;;;14.57;;
53775;SDS011;44276;49.534;6.378;2023-10-08T01:05:13;32.08;;;15.65;;
53775;SDS011;44276;49.534;6.378;2023-10-08T01:07:45;33.03;;;17.55;;
53775;SDS011;44276;49.534;6.378;2023-10-08T01:10:17;36.55;;;16.38;;
53775;SDS011;44276;49.534;6.378;2023-10-08T01:12:47;41.08;;;15.85;;
53775;SDS011;44276;49.534;6.378;2023-10-08T01:15:32;41.65;;;17.33;;
53775;SDS011;44276;49.534;6.378;2023-10-08T01:18:04;36.55;;;15.27;;
53775;SDS011;44276;49.534;6.378;2023-10-08T01:20:41;31.38;;;15.70;;
53775;SDS011;44276;49.534;6.378;2023-10-08T01:23:20;33.53;;;13.57;;
53775;SDS011;44276;49.534;6.378;2023-10-08T01:25:49;33.95;;;14.57;;
53775;SDS011;44276;49.534;6.378;2023-10-08T01:28:18;43.97;;;16.20;;
53775;SDS011;44276;49.534;6.378;2023-10-08T01:30:52;42.63;;;15.50;;
53775;SDS011;44276;49.534;6.378;2023-10-08T01:33:21;33.30;;;12.85;;
53775;SDS011;44276;49.534;6.378;2023-10-08T01:35:53;34.45;;;14.77;;
53775;SDS011;44276;49.534;6.378;2023-10-08T01:38:29;33.72;;;15.65;;
53775;SDS011;44276;49.534;6.378;2023-10-08T01:40:59;35.28;;;13.82;;
53775;SDS011;44276;49.534;6.378;2023-10-08T01:43:30;28.85;;;14.80;;
53775;SDS011;44276;49.534;6.378;2023-10-08T01:45:59;29.73;;;12.65;;
53775;SDS011;44276;49.534;6.378;2023-10-08T01:48:30;29.52;;;12.65;;
53775;SDS011;44276;49.534;6.378;2023-10-08T01:51:04;37.42;;;13.50;;
53775;SDS011;44276;49.534;6.378;2023-10-08T01:53:38;32.13;;;11.82;;
53775;SDS011;44276;49.534;6.378;2023-10-08T01:56:06;28.40;;;11.82;;
53775;SDS011;44276;49.534;6.378;2023-10-08T01:58:37;33.17;;;13.32;;
53775;SDS011;44276;49.534;6.378;2023-10-08T02:01:05;28.77;;;13.23;;
53775;SDS011;44276;49.534;6.378;2023-10-08T02:03:38;32.08;;;11.48;;
53775;SDS011;44276;49.534;6.378;2023-10-08T02:06:08;21.73;;;10.63;;
53775;SDS011;44276;49.534;6.378;2023-10-08T02:08:40;22.92;;;9.85;;
53775;SDS011;44276;49.534;6.378;2023-10-08T02:11:08;27.00;;;12.05;;
53775;SDS011;44276;49.534;6.378;2023-10-08T02:13:37;39.17;;;11.95;;
53775;SDS011;44276;49.534;6.378;2023-10-08T02:16:05;29.83;;;11.73;;
53775;SDS011;44276;49.534;6.378;2023-10-08T02:18:34;26.98;;;11.80;;
53775;SDS011;44276;49.534;6.378;2023-10-08T02:21:02;27.65;;;12.68;;
53775;SDS011;44276;49.534;6.378;2023-10-08T02:23:31;29.08;;;12.57;;
53775;SDS011;44276;49.534;6.378;2023-10-08T02:26:02;26.42;;;12.25;;
53775;SDS011;44276;49.534;6.378;2023-10-08T02:28:32;30.60;;;12.57;;
53775;SDS011;44276;49.534;6.378;2023-10-08T02:31:00;33.40;;;12.05;;
53775;SDS011;44276;49.534;6.378;2023-10-08T02:33:30;26.85;;;12.60;;
53775;SDS011;44276;49.534;6.378;2023-10-08T02:35:58;30.80;;;12.73;;
53775;SDS011;44276;49.534;6.378;2023-10-08T02:38:27;36.40;;;13.02;;
53775;SDS011;44276;49.534;6.378;2023-10-08T02:40:56;34.38;;;13.15;;
53775;SDS011;44276;49.534;6.378;2023-10-08T02:43:27;36.03;;;12.88;;
53775;SDS011;44276;49.534;6.378;2023-10-08T02:45:56;29.55;;;12.00;;
53775;SDS011;44276;49.534;6.378;2023-10-08T02:48:26;33.53;;;13.45;;
53775;SDS011;44276;49.534;6.378;2023-10-08T02:50:55;31.27;;;13.48;;
53775;SDS011;44276;49.534;6.378;2023-10-08T02:53:33;33.38;;;13.30;;
53775;SDS011;44276;49.534;6.378;2023-10-08T02:56:01;31.58;;;12.52;;
53775;SDS011;44276;49.534;6.378;2023-10-08T02:58:40;30.58;;;11.90;;
53775;SDS011;44276;49.534;6.378;2023-10-08T03:01:10;31.63;;;12.65;;
53775;SDS011;44276;49.534;6.378;2023-10-08T03:03:39;33.40;;;14.38;;
53775;SDS011;44276;49.534;6.378;2023-10-08T03:06:09;30.58;;;13.32;;
53775;SDS011;44276;49.534;6.378;2023-10-08T03:08:41;34.63;;;14.30;;
53775;SDS011;44276;49.534;6.378;2023-10-08T03:11:10;32.05;;;12.50;;
53775;SDS011;44276;49.534;6.378;2023-10-08T03:13:45;31.75;;;14.80;;
53775;SDS011;44276;49.534;6.378;2023-10-08T03:16:18;33.55;;;14.00;;
53775;SDS011;44276;49.534;6.378;2023-10-08T03:18:54;27.73;;;13.45;;
53775;SDS011;44276;49.534;6.378;2023-10-08T03:21:23;40.47;;;15.45;;
53775;SDS011;44276;49.534;6.378;2023-10-08T03:24:15;36.72;;;14.95;;
53775;SDS011;44276;49.534;6.378;2023-10-08T03:27:05;39.65;;;14.05;;
53775;SDS011;44276;49.534;6.378;2023-10-08T03:29:35;31.52;;;13.13;;
53775;SDS011;44276;49.534;6.378;2023-10-08T03:32:08;43.35;;;15.40;;
53775;SDS011;44276;49.534;6.378;2023-10-08T03:34:45;37.78;;;15.40;;
53775;SDS011;44276;49.534;6.378;2023-10-08T03:37:15;80.07;;;19.75;;
53775;SDS011;44276;49.534;6.378;2023-10-08T03:39:55;63.92;;;20.40;;
53775;SDS011;44276;49.534;6.378;2023-10-08T03:42:33;49.28;;;19.08;;
53775;SDS011;44276;49.534;6.378;2023-10-08T03:45:08;62.78;;;20.75;;
53775;SDS011;44276;49.534;6.378;2023-10-08T03:47:39;44.38;;;17.98;;
53775;SDS011;44276;49.534;6.378;2023-10-08T03:50:13;53.08;;;20.40;;
53775;SDS011;44276;49.534;6.378;2023-10-08T03:52:44;64.55;;;19.80;;
53775;SDS011;44276;49.534;6.378;2023-10-08T03:55:13;46.67;;;16.92;;
53775;SDS011;44276;49.534;6.378;2023-10-08T03:57:48;65.40;;;18.92;;
53775;SDS011;44276;49.534;6.378;2023-10-08T04:00:25;56.72;;;19.48;;
53775;SDS011;44276;49.534;6.378;2023-10-08T04:02:58;40.80;;;17.40;;
53775;SDS011;44276;49.534;6.378;2023-10-08T04:08:16;39.10;;;16.15;;
53775;SDS011;44276;49.534;6.378;2023-10-08T04:10:51;42.97;;;15.43;;
53775;SDS011;44276;49.534;6.378;2023-10-08T04:13:43;45.80;;;16.08;;
53775;SDS011;44276;49.534;6.378;2023-10-08T04:16:16;37.38;;;15.55;;
53775;SDS011;44276;49.534;6.378;2023-10-08T04:18:46;33.75;;;14.13;;
53775;SDS011;44276;49.534;6.378;2023-10-08T04:21:17;48.53;;;17.15;;
53775;SDS011;44276;49.534;6.378;2023-10-08T04:23:47;78.22;;;18.42;;
53775;SDS011;44276;49.534;6.378;2023-10-08T04:26:19;62.83;;;18.70;;
53775;SDS011;44276;49.534;6.378;2023-10-08T04:28:50;64.63;;;20.48;;
53775;SDS011;44276;49.534;6.378;2023-10-08T04:31:25;97.05;;;21.38;;
53775;SDS011;44276;49.534;6.378;2023-10-08T04:34:03;117.38;;;24.27;;
53775;SDS011;44276;49.534;6.378;2023-10-08T04:36:36;131.75;;;26.80;;
53775;SDS011;44276;49.534;6.378;2023-10-08T04:39:06;126.97;;;25.60;;
53775;SDS011;44276;49.534;6.378;2023-10-08T04:41:39;153.48;;;28.85;;
53775;SDS011;44276;49.534;6.378;2023-10-08T04:44:11;104.70;;;22.77;;
53775;SDS011;44276;49.534;6.378;2023-10-08T04:46:43;111.88;;;23.08;;
53775;SDS011;44276;49.534;6.378;2023-10-08T04:49:19;124.43;;;23.42;;
53775;SDS011;44276;49.534;6.378;2023-10-08T04:51:54;114.27;;;24.27;;
53775;SDS011;44276;49.534;6.378;2023-10-08T04:54:25;94.50;;;22.58;;
53775;SDS011;44276;49.534;6.378;2023-10-08T04:56:57;120.72;;;25.15;;
53775;SDS011;44276;49.534;6.378;2023-10-08T04:59:27;82.05;;;22.80;;
53775;SDS011;44276;49.534;6.378;2023-10-08T05:02:02;68.00;;;19.83;;
53775;SDS011;44276;49.534;6.378;2023-10-08T05:04:59;68.57;;;17.92;;
53775;SDS011;44276;49.534;6.378;2023-10-08T05:07:49;69.88;;;19.70;;
53775;SDS011;44276;49.534;6.378;2023-10-08T05:10:44;51.85;;;17.63;;
53775;SDS011;44276;49.534;6.378;2023-10-08T05:13:27;78.72;;;19.52;;
53775;SDS011;44276;49.534;6.378;2023-10-08T05:16:11;68.70;;;19.20;;
53775;SDS011;44276;49.534;6.378;2023-10-08T05:19:03;118.05;;;23.38;;
53775;SDS011;44276;49.534;6.378;2023-10-08T05:21:51;122.03;;;26.25;;
53775;SDS011;44276;49.534;6.378;2023-10-08T05:24:31;110.95;;;21.63;;
53775;SDS011;44276;49.534;6.378;2023-10-08T05:29:50;50.38;;;20.08;;
53775;SDS011;44276;49.534;6.378;2023-10-08T05:32:35;49.53;;;18.75;;
53775;SDS011;44276;49.534;6.378;2023-10-08T05:35:19;42.70;;;15.98;;
53775;SDS011;44276;49.534;6.378;2023-10-08T05:38:16;36.53;;;15.40;;
53775;SDS011;44276;49.534;6.378;2023-10-08T05:41:04;34.95;;;16.45;;
53775;SDS011;44276;49.534;6.378;2023-10-08T05:43:43;42.03;;;16.08;;
53775;SDS011;44276;49.534;6.378;2023-10-08T05:46:40;52.60;;;16.33;;
53775;SDS011;44276;49.534;6.378;2023-10-08T05:49:32;49.28;;;17.00;;
53775;SDS011;44276;49.534;6.378;2023-10-08T05:52:10;48.83;;;16.80;;
53775;SDS011;44276;49.534;6.378;2023-10-08T05:54:51;58.30;;;17.98;;
53775;SDS011;44276;49.534;6.378;2023-10-08T05:57:40;52.85;;;17.95;;
53775;SDS011;44276;49.534;6.378;2023-10-08T06:00:13;48.67;;;18.27;;
53775;SDS011;44276;49.534;6.378;2023-10-08T06:02:56;47.60;;;16.98;;
53775;SDS011;44276;49.534;6.378;2023-10-08T06:05:59;56.08;;;19.20;;
53775;SDS011;44276;49.534;6.378;2023-10-08T06:08:46;56.88;;;20.42;;
53775;SDS011;44276;49.534;6.378;2023-10-08T06:11:44;54.70;;;18.50;;
53775;SDS011;44276;49.534;6.378;2023-10-08T06:14:23;64.57;;;21.38;;
53775;SDS011;44276;49.534;6.378;2023-10-08T06:17:02;60.95;;;20.63;;
53775;SDS011;44276;49.534;6.378;2023-10-08T06:22:19;59.42;;;19.58;;
53775;SDS011;44276;49.534;6.378;2023-10-08T06:24:52;50.45;;;19.30;;
53775;SDS011;44276;49.534;6.378;2023-10-08T06:27:41;50.53;;;20.55;;
53775;SDS011;44276;49.534;6.378;2023-10-08T06:30:11;60.83;;;21.65;;
53775;SDS011;44276;49.534;6.378;2023-10-08T06:32:43;46.28;;;17.88;;
53775;SDS011;44276;49.534;6.378;2023-10-08T06:35:12;74.03;;;21.95;;
53775;SDS011;44276;49.534;6.378;2023-10-08T06:37:44;81.90;;;25.05;;
53775;SDS011;44276;49.534;6.378;2023-10-08T06:40:15;89.63;;;27.83;;
53775;SDS011;44276;49.534;6.378;2023-10-08T06:42:59;78.65;;;23.85;;
53775;SDS011;44276;49.534;6.378;2023-10-08T06:45:37;61.47;;;23.85;;
53775;SDS011;44276;49.534;6.378;2023-10-08T06:48:06;59.15;;;23.77;;
53775;SDS011;44276;49.534;6.378;2023-10-08T06:50:34;56.13;;;24.15;;
53775;SDS011;44276;49.534;6.378;2023-10-08T06:53:03;54.45;;;23.45;;
53775;SDS011;44276;49.534;6.378;2023-10-08T06:55:34;51.67;;;22.17;;
53775;SDS011;44276;49.534;6.378;2023-10-08T06:58:04;52.10;;;22.40;;
53775;SDS011;44276;49.534;6.378;2023-10-08T07:00:34;38.25;;;18.67;;
53775;SDS011;44276;49.534;6.378;2023-10-08T07:03:06;46.85;;;20.00;;
53775;SDS011;44276;49.534;6.378;2023-10-08T07:05:37;44.50;;;20.30;;
53775;SDS011;44276;49.534;6.378;2023-10-08T07:08:11;43.65;;;20.02;;
53775;SDS011;44276;49.534;6.378;2023-10-08T07:10:41;34.97;;;18.10;;
53775;SDS011;44276;49.534;6.378;2023-10-08T07:13:13;35.83;;;18.85;;
53775;SDS011;44276;49.534;6.378;2023-10-08T07:15:43;33.47;;;18.33;;
53775;SDS011;44276;49.534;6.378;2023-10-08T07:18:12;31.92;;;17.20;;
53775;SDS011;44276;49.534;6.378;2023-10-08T07:20:44;35.03;;;18.20;;
53775;SDS011;44276;49.534;6.378;2023-10-08T07:23:19;27.98;;;16.13;;
53775;SDS011;44276;49.534;6.378;2023-10-08T07:25:54;28.42;;;15.73;;
53775;SDS011;44276;49.534;6.378;2023-10-08T07:28:38;23.75;;;14.85;;
53775;SDS011;44276;49.534;6.378;2023-10-08T07:31:12;21.73;;;13.30;;
53775;SDS011;44276;49.534;6.378;2023-10-08T07:33:42;19.45;;;11.65;;
53775;SDS011;44276;49.534;6.378;2023-10-08T07:36:10;18.60;;;11.63;;
53775;SDS011;44276;49.534;6.378;2023-10-08T07:38:44;17.20;;;10.43;;
53775;SDS011;44276;49.534;6.378;2023-10-08T07:41:13;17.98;;;10.70;;
53775;SDS011;44276;49.534;6.378;2023-10-08T07:43:43;14.38;;;8.55;;
53775;SDS011;44276;49.534;6.378;2023-10-08T07:46:19;10.77;;;7.20;;
53775;SDS011;44276;49.534;6.378;2023-10-08T07:48:47;6.90;;;5.45;;
53775;SDS011;44276;49.534;6.378;2023-10-08T07:51:16;7.55;;;4.38;;
53775;SDS011;44276;49.534;6.378;2023-10-08T07:53:48;10.07;;;4.30;;
53775;SDS011;44276;49.534;6.378;2023-10-08T07:56:21;6.50;;;3.08;;
53775;SDS011;44276;49.534;6.378;2023-10-08T07:58:51;5.50;;;3.92;;
53775;SDS011;44276;49.534;6.378;2023-10-08T08:01:22;6.03;;;3.30;;
53775;SDS011;44276;49.534;6.378;2023-10-08T08:03:52;3.72;;;2.65;;
53775;SDS011;44276;49.534;6.378;2023-10-08T08:06:20;6.03;;;3.20;;
53775;SDS011;44276;49.534;6.378;2023-10-08T08:08:50;7.10;;;2.97;;
53775;SDS011;44276;49.534;6.378;2023-10-08T08:12:11;5.95;;;3.13;;
53775;SDS011;44276;49.534;6.378;2023-10-08T08:14:41;4.47;;;2.67;;
53775;SDS011;44276;49.534;6.378;2023-10-08T08:17:09;4.72;;;3.35;;
53775;SDS011;44276;49.534;6.378;2023-10-08T08:19:41;3.83;;;2.22;;
53775;SDS011;44276;49.534;6.378;2023-10-08T08:22:10;6.72;;;3.10;;
53775;SDS011;44276;49.534;6.378;2023-10-08T08:24:41;10.20;;;3.50;;
53775;SDS011;44276;49.534;6.378;2023-10-08T08:27:11;5.65;;;2.95;;
53775;SDS011;44276;49.534;6.378;2023-10-08T08:29:52;8.23;;;4.68;;
53775;SDS011;44276;49.534;6.378;2023-10-08T08:32:22;15.02;;;2.95;;
53775;SDS011;44276;49.534;6.378;2023-10-08T08:34:51;4.72;;;3.08;;
53775;SDS011;44276;49.534;6.378;2023-10-08T08:37:19;7.22;;;2.75;;
53775;SDS011;44276;49.534;6.378;2023-10-08T08:39:48;5.15;;;2.90;;
53775;SDS011;44276;49.534;6.378;2023-10-08T08:42:17;13.95;;;3.45;;
53775;SDS011;44276;49.534;6.378;2023-10-08T08:44:51;4.55;;;3.28;;
53775;SDS011;44276;49.534;6.378;2023-10-08T08:47:24;6.00;;;3.35;;
53775;SDS011;44276;49.534;6.378;2023-10-08T08:49:55;7.72;;;4.03;;
53775;SDS011;44276;49.534;6.378;2023-10-08T08:52:34;7.60;;;4.10;;
53775;SDS011;44276;49.534;6.378;2023-10-08T08:55:05;7.30;;;3.40;;
53775;SDS011;44276;49.534;6.378;2023-10-08T08:57:41;6.88;;;3.90;;
53775;SDS011;44276;49.534;6.378;2023-10-08T09:00:16;6.57;;;4.30;;
53775;SDS011;44276;49.534;6.378;2023-10-08T09:02:47;5.97;;;4.13;;
53775;SDS011;44276;49.534;6.378;2023-10-08T09:05:41;7.03;;;4.13;;
53775;SDS011;44276;49.534;6.378;2023-10-08T09:08:16;7.43;;;4.20;;
53775;SDS011;44276;49.534;6.378;2023-10-08T09:10:45;10.40;;;4.20;;
53775;SDS011;44276;49.534;6.378;2023-10-08T09:13:19;9.23;;;4.40;;
53775;SDS011;44276;49.534;6.378;2023-10-08T09:15:50;5.28;;;2.95;;
53775;SDS011;44276;49.534;6.378;2023-10-08T09:18:22;8.68;;;3.80;;
53775;SDS011;44276;49.534;6.378;2023-10-08T09:20:56;5.43;;;3.05;;
53775;SDS011;44276;49.534;6.378;2023-10-08T09:23:25;5.80;;;3.22;;
53775;SDS011;44276;49.534;6.378;2023-10-08T09:25:53;6.57;;;3.30;;
53775;SDS011;44276;49.534;6.378;2023-10-08T09:28:30;7.28;;;3.50;;
53775;SDS011;44276;49.534;6.378;2023-10-08T09:31:02;7.93;;;2.83;;
53775;SDS011;44276;49.534;6.378;2023-10-08T09:33:31;5.20;;;3.58;;
53775;SDS011;44276;49.534;6.378;2023-10-08T09:36:00;9.57;;;3.83;;
53775;SDS011;44276;49.534;6.378;2023-10-08T09:38:32;8.25;;;3.47;;
53775;SDS011;44276;49.534;6.378;2023-10-08T09:41:01;8.57;;;3.30;;
53775;SDS011;44276;49.534;6.378;2023-10-08T09:43:30;6.32;;;3.25;;
53775;SDS011;44276;49.534;6.378;2023-10-08T09:46:07;5.85;;;3.13;;
53775;SDS011;44276;49.534;6.378;2023-10-08T09:48:48;5.97;;;3.10;;
53775;SDS011;44276;49.534;6.378;2023-10-08T09:51:19;10.45;;;3.72;;
53775;SDS011;44276;49.534;6.378;2023-10-08T09:53:51;6.18;;;3.00;;
53775;SDS011;44276;49.534;6.378;2023-10-08T09:56:31;7.35;;;3.22;;
53775;SDS011;44276;49.534;6.378;2023-10-08T09:59:00;9.00;;;3.40;;
53775;SDS011;44276;49.534;6.378;2023-10-08T10:01:31;7.38;;;4.10;;
53775;SDS011;44276;49.534;6.378;2023-10-08T10:04:00;4.25;;;2.92;;
53775;SDS011;44276;49.534;6.378;2023-10-08T10:06:33;5.90;;;3.55;;
53775;SDS011;44276;49.534;6.378;2023-10-08T10:09:02;6.28;;;3.17;;
53775;SDS011;44276;49.534;6.378;2023-10-08T10:11:36;6.03;;;3.22;;
53775;SDS011;44276;49.534;6.378;2023-10-08T10:14:04;7.43;;;2.67;;
53775;SDS011;44276;49.534;6.378;2023-10-08T10:16:36;5.18;;;3.90;;
53775;SDS011;44276;49.534;6.378;2023-10-08T10:19:06;9.38;;;4.85;;
53775;SDS011;44276;49.534;6.378;2023-10-08T10:21:43;5.95;;;2.90;;
53775;SDS011;44276;49.534;6.378;2023-10-08T10:24:28;7.20;;;3.38;;
53775;SDS011;44276;49.534;6.378;2023-10-08T10:27:12;5.93;;;4.03;;
53775;SDS011;44276;49.534;6.378;2023-10-08T10:29:42;4.20;;;2.75;;
53775;SDS011;44276;49.534;6.378;2023-10-08T10:32:15;6.35;;;2.75;;
53775;SDS011;44276;49.534;6.378;2023-10-08T10:34:45;8.40;;;3.35;;
53775;SDS011;44276;49.534;6.378;2023-10-08T10:37:18;8.65;;;3.20;;
53775;SDS011;44276;49.534;6.378;2023-10-08T10:39:52;5.32;;;2.78;;
53775;SDS011;44276;49.534;6.378;2023-10-08T10:42:25;5.85;;;3.10;;
53775;SDS011;44276;49.534;6.378;2023-10-08T10:44:54;6.40;;;3.33;;
53775;SDS011;44276;49.534;6.378;2023-10-08T10:47:26;6.80;;;2.78;;
53775;SDS011;44276;49.534;6.378;2023-10-08T10:49:54;7.45;;;3.78;;
53775;SDS011;44276;49.534;6.378;2023-10-08T10:52:45;4.55;;;2.67;;
53775;SDS011;44276;49.534;6.378;2023-10-08T10:55:19;6.57;;;3.17;;
53775;SDS011;44276;49.534;6.378;2023-10-08T10:57:58;9.10;;;3.20;;
53775;SDS011;44276;49.534;6.378;2023-10-08T11:00:41;7.22;;;3.40;;
53775;SDS011;44276;49.534;6.378;2023-10-08T11:03:25;8.38;;;3.35;;
53775;SDS011;44276;49.534;6.378;2023-10-08T11:05:56;8.10;;;3.35;;
53775;SDS011;44276;49.534;6.378;2023-10-08T11:08:32;9.73;;;4.10;;
53775;SDS011;44276;49.534;6.378;2023-10-08T11:11:04;6.10;;;3.17;;
53775;SDS011;44276;49.534;6.378;2023-10-08T11:13:33;8.73;;;3.05;;
53775;SDS011;44276;49.534;6.378;2023-10-08T11:16:06;10.93;;;4.57;;
53775;SDS011;44276;49.534;6.378;2023-10-08T11:18:44;4.75;;;2.75;;
53775;SDS011;44276;49.534;6.378;2023-10-08T11:21:17;8.88;;;3.03;;
53775;SDS011;44276;49.534;6.378;2023-10-08T11:23:51;5.65;;;2.78;;
53775;SDS011;44276;49.534;6.378;2023-10-08T11:26:22;10.85;;;3.28;;
53775;SDS011;44276;49.534;6.378;2023-10-08T11:28:59;6.55;;;3.15;;
53775;SDS011;44276;49.534;6.378;2023-10-08T11:31:30;7.90;;;3.35;;
53775;SDS011;44276;49.534;6.378;2023-10-08T11:34:03;13.15;;;3.28;;
53775;SDS011;44276;49.534;6.378;2023-10-08T11:36:36;5.70;;;3.28;;
53775;SDS011;44276;49.534;6.378;2023-10-08T11:39:16;5.53;;;2.90;;
53775;SDS011;44276;49.534;6.378;2023-10-08T11:41:55;7.20;;;3.05;;
53775;SDS011;44276;49.534;6.378;2023-10-08T11:44:30;6.03;;;3.33;;
53775;SDS011;44276;49.534;6.378;2023-10-08T11:47:03;4.40;;;2.50;;
53775;SDS011;44276;49.534;6.378;2023-10-08T11:49:40;12.55;;;4.22;;
53775;SDS011;44276;49.534;6.378;2023-10-08T11:52:17;6.00;;;2.97;;
53775;SDS011;44276;49.534;6.378;2023-10-08T11:54:48;5.78;;;3.67;;
53775;SDS011;44276;49.534;6.378;2023-10-08T11:57:19;9.50;;;4.38;;
53775;SDS011;44276;49.534;6.378;2023-10-08T11:59:49;8.25;;;2.60;;
53775;SDS011;44276;49.534;6.378;2023-10-08T12:02:21;7.97;;;3.20;;
53775;SDS011;44276;49.534;6.378;2023-10-08T12:04:53;7.97;;;3.30;;
53775;SDS011;44276;49.534;6.378;2023-10-08T12:07:24;5.82;;;3.50;;
53775;SDS011;44276;49.534;6.378;2023-10-08T12:09:54;7.72;;;3.67;;
53775;SDS011;44276;49.534;6.378;2023-10-08T12:12:22;6.82;;;2.97;;
53775;SDS011;44276;49.534;6.378;2023-10-08T12:14:50;7.03;;;2.90;;
53775;SDS011;44276;49.534;6.378;2023-10-08T12:17:21;6.28;;;3.22;;
53775;SDS011;44276;49.534;6.378;2023-10-08T12:20:06;6.60;;;3.40;;
53775;SDS011;44276;49.534;6.378;2023-10-08T12:22:49;7.53;;;2.97;;
53775;SDS011;44276;49.534;6.378;2023-10-08T12:25:18;14.93;;;3.30;;
53775;SDS011;44276;49.534;6.378;2023-10-08T12:27:47;6.95;;;3.45;;
53775;SDS011;44276;49.534;6.378;2023-10-08T12:30:16;8.52;;;2.97;;
53775;SDS011;44276;49.534;6.378;2023-10-08T12:32:44;6.75;;;3.15;;
53775;SDS011;44276;49.534;6.378;2023-10-08T12:35:14;7.40;;;3.20;;
53775;SDS011;44276;49.534;6.378;2023-10-08T12:37:43;9.45;;;3.20;;
53775;SDS011;44276;49.534;6.378;2023-10-08T12:40:11;8.18;;;3.70;;
53775;SDS011;44276;49.534;6.378;2023-10-08T12:42:49;6.63;;;3.72;;
53775;SDS011;44276;49.534;6.378;2023-10-08T12:45:19;6.63;;;3.33;;
53775;SDS011;44276;49.534;6.378;2023-10-08T12:47:48;10.95;;;4.13;;
53775;SDS011;44276;49.534;6.378;2023-10-08T12:50:19;8.45;;;4.00;;
53775;SDS011;44276;49.534;6.378;2023-10-08T12:52:56;6.25;;;3.33;;
53775;SDS011;44276;49.534;6.378;2023-10-08T12:55:30;5.53;;;3.53;;
53775;SDS011;44276;49.534;6.378;2023-10-08T12:58:06;8.35;;;3.75;;
53775;SDS011;44276;49.534;6.378;2023-10-08T13:00:36;5.13;;;3.28;;
53775;SDS011;44276;49.534;6.378;2023-10-08T13:03:08;7.85;;;3.78;;
53775;SDS011;44276;49.534;6.378;2023-10-08T13:05:43;6.65;;;3.33;;
53775;SDS011;44276;49.534;6.378;2023-10-08T13:08:12;6.72;;;4.07;;
53775;SDS011;44276;49.534;6.378;2023-10-08T13:10:41;6.05;;;3.10;;
53775;SDS011;44276;49.534;6.378;2023-10-08T13:13:10;6.53;;;3.25;;
53775;SDS011;44276;49.534;6.378;2023-10-08T13:15:39;7.97;;;3.15;;
53775;SDS011;44276;49.534;6.378;2023-10-08T13:18:09;6.57;;;3.15;;
53775;SDS011;44276;49.534;6.378;2023-10-08T13:20:38;5.20;;;3.10;;
53775;SDS011;44276;49.534;6.378;2023-10-08T13:23:09;6.47;;;3.70;;
53775;SDS011;44276;49.534;6.378;2023-10-08T13:25:37;11.15;;;2.72;;
53775;SDS011;44276;49.534;6.378;2023-10-08T13:28:06;10.23;;;3.22;;
53775;SDS011;44276;49.534;6.378;2023-10-08T13:30:37;10.77;;;3.65;;
53775;SDS011;44276;49.534;6.378;2023-10-08T13:33:06;6.75;;;3.50;;
53775;SDS011;44276;49.534;6.378;2023-10-08T13:35:36;6.00;;;3.00;;
53775;SDS011;44276;49.534;6.378;2023-10-08T13:38:04;4.75;;;2.75;;
53775;SDS011;44276;49.534;6.378;2023-10-08T13:40:37;7.90;;;4.15;;
53775;SDS011;44276;49.534;6.378;2023-10-08T13:43:27;7.95;;;3.47;;
53775;SDS011;44276;49.534;6.378;2023-10-08T13:46:01;7.75;;;4.00;;
53775;SDS011;44276;49.534;6.378;2023-10-08T13:48:33;10.48;;;3.80;;
53775;SDS011;44276;49.534;6.378;2023-10-08T13:51:03;8.55;;;3.83;;
53775;SDS011;44276;49.534;6.378;2023-10-08T13:53:37;8.90;;;3.30;;
53775;SDS011;44276;49.534;6.378;2023-10-08T13:56:07;6.75;;;3.03;;
53775;SDS011;44276;49.534;6.378;2023-10-08T13:58:38;6.78;;;3.60;;
53775;SDS011;44276;49.534;6.378;2023-10-08T14:01:12;9.30;;;3.30;;
53775;SDS011;44276;49.534;6.378;2023-10-08T14:03:47;7.47;;;2.92;;
53775;SDS011;44276;49.534;6.378;2023-10-08T14:06:19;6.20;;;2.88;;
53775;SDS011;44276;49.534;6.378;2023-10-08T14:08:48;10.45;;;2.95;;
53775;SDS011;44276;49.534;6.378;2023-10-08T14:11:20;6.97;;;3.50;;
53775;SDS011;44276;49.534;6.378;2023-10-08T14:13:50;7.85;;;3.72;;
53775;SDS011;44276;49.534;6.378;2023-10-08T14:16:19;7.22;;;3.03;;
53775;SDS011;44276;49.534;6.378;2023-10-08T14:18:50;5.30;;;3.17;;
53775;SDS011;44276;49.534;6.378;2023-10-08T14:21:21;8.15;;;3.65;;
53775;SDS011;44276;49.534;6.378;2023-10-08T14:23:51;8.27;;;3.30;;
53775;SDS011;44276;49.534;6.378;2023-10-08T14:26:21;5.35;;;3.25;;
53775;SDS011;44276;49.534;6.378;2023-10-08T14:28:49;8.07;;;3.83;;
53775;SDS011;44276;49.534;6.378;2023-10-08T14:31:23;7.53;;;2.83;;
53775;SDS011;44276;49.534;6.378;2023-10-08T14:33:53;9.43;;;3.22;;
53775;SDS011;44276;49.534;6.378;2023-10-08T14:36:32;8.88;;;3.55;;
53775;SDS011;44276;49.534;6.378;2023-10-08T14:39:18;7.55;;;4.03;;
53775;SDS011;44276;49.534;6.378;2023-10-08T14:42:05;11.88;;;3.63;;
53775;SDS011;44276;49.534;6.378;2023-10-08T14:44:51;6.25;;;3.15;;
53775;SDS011;44276;49.534;6.378;2023-10-08T14:47:20;10.43;;;3.72;;
53775;SDS011;44276;49.534;6.378;2023-10-08T14:49:49;10.07;;;3.92;;
53775;SDS011;44276;49.534;6.378;2023-10-08T14:52:17;13.65;;;4.07;;
53775;SDS011;44276;49.534;6.378;2023-10-08T14:54:46;8.45;;;3.00;;
53775;SDS011;44276;49.534;6.378;2023-10-08T14:57:16;12.35;;;4.47;;
53775;SDS011;44276;49.534;6.378;2023-10-08T14:59:45;8.98;;;3.72;;
53775;SDS011;44276;49.534;6.378;2023-10-08T15:02:14;7.32;;;3.25;;
53775;SDS011;44276;49.534;6.378;2023-10-08T15:04:43;9.48;;;3.80;;
53775;SDS011;44276;49.534;6.378;2023-10-08T15:07:11;6.75;;;3.30;;
53775;SDS011;44276;49.534;6.378;2023-10-08T15:09:44;5.32;;;3.38;;
53775;SDS011;44276;49.534;6.378;2023-10-08T15:12:12;11.55;;;3.20;;
53775;SDS011;44276;49.534;6.378;2023-10-08T15:14:44;7.32;;;3.90;;
53775;SDS011;44276;49.534;6.378;2023-10-08T15:17:15;5.18;;;2.80;;
53775;SDS011;44276;49.534;6.378;2023-10-08T15:19:44;15.05;;;4.68;;